Time;durP1;ratioP1;P1;durP2;ratioP2;P2;SDS_P1;SDS_P2;PMS_P1;PMS_P2;Temp;Humidity;BMP_temperature;BMP_pressure;BME280_temperature;BME280_humidity;BME280_pressure;Samples;Min_cycle;Max_cycle;Signal;HPM_P1;HPM_P2
2022/12/14 00:01:12;;;;;;;89.47;45.60;;;;;;;;;;5073478;28;20070;-73
2022/12/14 00:03:38;;;;;;;93.85;46.38;;;;;;;;;;5072015;28;20024;-73
2022/12/14 00:06:11;;;;;;;93.93;47.97;;;;;;;;;;5072000;28;20116;-72
2022/12/14 00:08:36;;;;;;;88.72;43.45;;;;;;;;;;5073268;28;20067;-73
2022/12/14 00:11:02;;;;;;;81.70;42.70;;;;;;;;;;5072035;28;20056;-71
2022/12/14 00:13:27;;;;;;;85.55;44.25;;;;;;;;;;5072874;28;20025;-72
2022/12/14 00:15:53;;;;;;;86.68;43.92;;;;;;;;;;5076352;28;20016;-72
2022/12/14 00:18:19;;;;;;;101.40;49.60;;;;;;;;;;5075754;28;20039;-72
2022/12/14 00:20:44;;;;;;;98.80;47.08;;;;;;;;;;5075682;28;20101;-72
2022/12/14 00:23:10;;;;;;;87.65;42.78;;;;;;;;;;5077218;28;20031;-73
2022/12/14 00:25:35;;;;;;;83.78;41.63;;;;;;;;;;5075584;28;20111;-71
2022/12/14 00:28:01;;;;;;;81.10;40.97;;;;;;;;;;5076927;28;20043;-71
2022/12/14 00:30:27;;;;;;;83.57;39.72;;;;;;;;;;5077095;28;20025;-71
2022/12/14 00:32:52;;;;;;;84.00;40.40;;;;;;;;;;5076789;28;20032;-71
2022/12/14 00:35:18;;;;;;;78.32;39.38;;;;;;;;;;5076845;28;20382;-71
2022/12/14 00:37:44;;;;;;;81.28;40.05;;;;;;;;;;5076597;28;20035;-71
2022/12/14 00:40:10;;;;;;;72.32;36.08;;;;;;;;;;5076859;28;20019;-71
2022/12/14 00:42:37;;;;;;;72.88;35.40;;;;;;;;;;5075198;28;20048;-72
2022/12/14 00:45:04;;;;;;;115.55;45.28;;;;;;;;;;5076733;28;20036;-72
2022/12/14 00:47:30;;;;;;;93.68;42.90;;;;;;;;;;5076439;28;20021;-73
2022/12/14 00:49:55;;;;;;;94.32;43.70;;;;;;;;;;5076549;28;20036;-74
2022/12/14 00:52:21;;;;;;;91.45;42.55;;;;;;;;;;5076276;28;20021;-71
2022/12/14 00:54:46;;;;;;;103.10;46.47;;;;;;;;;;5074858;28;20486;-73
2022/12/14 00:57:11;;;;;;;92.85;44.13;;;;;;;;;;5076383;28;20119;-74
2022/12/14 00:59:37;;;;;;;83.13;40.92;;;;;;;;;;5075051;28;20016;-75
2022/12/14 01:02:03;;;;;;;81.65;40.85;;;;;;;;;;5076013;28;20016;-73
2022/12/14 01:04:28;;;;;;;85.43;40.97;;;;;;;;;;5074943;28;20119;-74
2022/12/14 01:06:54;;;;;;;90.55;43.90;;;;;;;;;;5076323;28;20501;-74
2022/12/14 01:09:20;;;;;;;84.88;43.63;;;;;;;;;;5076053;28;20024;-71
2022/12/14 01:11:45;;;;;;;89.18;42.88;;;;;;;;;;5074893;28;20019;-70
2022/12/14 01:14:12;;;;;;;93.55;45.60;;;;;;;;;;5075660;28;20021;-70
2022/12/14 01:16:37;;;;;;;87.05;42.47;;;;;;;;;;5075038;28;20021;-72
2022/12/14 01:19:03;;;;;;;88.47;44.50;;;;;;;;;;5075853;28;20032;-73
2022/12/14 01:21:28;;;;;;;92.43;45.47;;;;;;;;;;5076031;28;20056;-72
2022/12/14 01:23:55;;;;;;;87.72;44.75;;;;;;;;;;5074599;28;20028;-72
2022/12/14 01:26:21;;;;;;;70.75;35.95;;;;;;;;;;5075430;28;20024;-72
2022/12/14 01:28:50;;;;;;;69.07;34.92;;;;;;;;;;5074647;28;20124;-72
2022/12/14 01:31:17;;;;;;;67.03;34.13;;;;;;;;;;5075816;28;20020;-71
2022/12/14 01:33:43;;;;;;;71.00;36.58;;;;;;;;;;5073867;28;20063;-71
2022/12/14 01:36:10;;;;;;;69.68;36.05;;;;;;;;;;5075131;28;20021;-75
2022/12/14 01:38:35;;;;;;;65.50;33.40;;;;;;;;;;5075532;28;20112;-74
2022/12/14 01:41:01;;;;;;;59.47;30.77;;;;;;;;;;5074068;28;20107;-73
2022/12/14 01:43:46;;;;;;;68.40;34.13;;;;;;;;;;5074023;28;20067;-73
2022/12/14 01:46:12;;;;;;;66.70;33.58;;;;;;;;;;5074280;28;20028;-73
2022/12/14 01:48:37;;;;;;;68.90;35.65;;;;;;;;;;5075425;28;20524;-75
2022/12/14 01:51:03;;;;;;;73.50;36.08;;;;;;;;;;5075564;28;20039;-75
2022/12/14 01:53:28;;;;;;;91.45;41.67;;;;;;;;;;5074139;28;20047;-74
2022/12/14 01:55:55;;;;;;;92.82;42.10;;;;;;;;;;5075320;28;20028;-72
2022/12/14 01:58:21;;;;;;;91.72;42.10;;;;;;;;;;5075266;28;20337;-74
2022/12/14 02:00:47;;;;;;;83.57;39.88;;;;;;;;;;5073960;28;20395;-73
2022/12/14 02:03:15;;;;;;;69.85;35.08;;;;;;;;;;5075259;28;20031;-72
2022/12/14 02:05:47;;;;;;;67.38;35.70;;;;;;;;;;5074084;28;20037;-75
2022/12/14 02:08:13;;;;;;;74.13;36.95;;;;;;;;;;5075155;28;20442;-74
2022/12/14 02:10:39;;;;;;;179.90;59.33;;;;;;;;;;5074933;28;20078;-73
2022/12/14 02:13:13;;;;;;;146.73;51.70;;;;;;;;;;5074613;28;20032;-74
2022/12/14 02:15:39;;;;;;;196.43;61.15;;;;;;;;;;5074797;28;20025;-73
2022/12/14 02:18:08;;;;;;;203.18;62.38;;;;;;;;;;5075015;28;20091;-71
2022/12/14 02:20:40;;;;;;;173.02;60.80;;;;;;;;;;5073901;28;20029;-73
2022/12/14 02:23:19;;;;;;;117.72;47.15;;;;;;;;;;5074819;28;20040;-73
2022/12/14 02:25:45;;;;;;;128.90;52.92;;;;;;;;;;5073658;28;20041;-73
2022/12/14 02:28:10;;;;;;;84.55;38.22;;;;;;;;;;5074755;28;20028;-74
2022/12/14 02:30:37;;;;;;;108.03;49.97;;;;;;;;;;5074834;28;20045;-73
2022/12/14 02:33:06;;;;;;;73.13;33.35;;;;;;;;;;5073527;28;20371;-74
2022/12/14 02:35:34;;;;;;;78.18;39.60;;;;;;;;;;5074622;28;20074;-73
2022/12/14 02:38:12;;;;;;;101.82;46.58;;;;;;;;;;5074189;28;20017;-73
2022/12/14 02:40:40;;;;;;;64.80;31.88;;;;;;;;;;5073829;28;20032;-73
2022/12/14 02:43:10;;;;;;;77.05;36.25;;;;;;;;;;5074540;28;20056;-74
2022/12/14 02:45:40;;;;;;;50.55;26.77;;;;;;;;;;5073422;28;20028;-73
2022/12/14 02:48:15;;;;;;;51.83;26.23;;;;;;;;;;5073382;28;20032;-73
2022/12/14 02:50:52;;;;;;;47.95;25.10;;;;;;;;;;5074411;28;20107;-73
2022/12/14 02:53:41;;;;;;;43.65;23.75;;;;;;;;;;5074068;28;20474;-73
2022/12/14 02:56:08;;;;;;;49.35;26.42;;;;;;;;;;5068731;28;20127;-73
2022/12/14 02:58:37;;;;;;;46.85;24.67;;;;;;;;;;5074212;28;20044;-72
2022/12/14 03:01:03;;;;;;;47.65;25.10;;;;;;;;;;5072875;28;20024;-72
2022/12/14 03:03:28;;;;;;;39.08;22.55;;;;;;;;;;5073176;28;20372;-71
2022/12/14 03:05:57;;;;;;;45.58;24.65;;;;;;;;;;5072951;28;20036;-71
2022/12/14 03:08:24;;;;;;;50.45;25.38;;;;;;;;;;5074138;28;20051;-72
2022/12/14 03:11:15;;;;;;;47.33;23.60;;;;;;;;;;5074249;28;20029;-72
2022/12/14 03:14:07;;;;;;;46.78;23.75;;;;;;;;;;5071668;28;20063;-72
2022/12/14 03:16:39;;;;;;;42.78;23.15;;;;;;;;;;5072003;28;20074;-72
2022/12/14 03:19:08;;;;;;;46.97;23.52;;;;;;;;;;5073022;28;20112;-72
2022/12/14 03:21:35;;;;;;;54.10;25.83;;;;;;;;;;5074218;28;20024;-71
2022/12/14 03:24:04;;;;;;;58.67;27.05;;;;;;;;;;5074180;28;20150;-72
2022/12/14 03:26:39;;;;;;;41.17;22.60;;;;;;;;;;5074015;28;20017;-72
2022/12/14 03:29:07;;;;;;;36.25;20.75;;;;;;;;;;5073983;28;20451;-72
2022/12/14 03:31:36;;;;;;;39.67;21.85;;;;;;;;;;5074127;28;20105;-72
2022/12/14 03:34:04;;;;;;;50.38;26.75;;;;;;;;;;5073605;28;20036;-72
2022/12/14 03:36:49;;;;;;;51.58;25.35;;;;;;;;;;5072883;28;20016;-72
2022/12/14 03:39:22;;;;;;;48.97;23.17;;;;;;;;;;5061860;28;20033;-72
2022/12/14 03:41:51;;;;;;;44.95;23.27;;;;;;;;;;5073313;28;20032;-72
2022/12/14 03:44:22;;;;;;;78.90;35.95;;;;;;;;;;5072646;28;20083;-73
2022/12/14 03:46:54;;;;;;;87.40;37.00;;;;;;;;;;5072648;28;20048;-71
2022/12/14 03:49:26;;;;;;;93.07;41.58;;;;;;;;;;5076264;28;20071;-71
2022/12/14 03:52:10;;;;;;;151.13;70.53;;;;;;;;;;5077810;28;20157;-71
2022/12/14 03:54:45;;;;;;;84.03;41.22;;;;;;;;;;5077883;28;20074;-70
2022/12/14 03:57:11;;;;;;;63.30;33.83;;;;;;;;;;5076364;28;20104;-71
2022/12/14 03:59:39;;;;;;;49.53;26.70;;;;;;;;;;5076495;28;20051;-71
2022/12/14 04:02:08;;;;;;;49.47;32.25;;;;;;;;;;5077724;28;20425;-72
2022/12/14 04:04:49;;;;;;;39.00;27.38;;;;;;;;;;5077673;28;20016;-71
2022/12/14 04:07:23;;;;;;;36.45;23.35;;;;;;;;;;5076394;28;20028;-71
2022/12/14 04:18:55;;;;;;;34.22;22.27;;;;;;;;;;5077738;28;20550;-71
2022/12/14 04:21:18;;;;;;;42.25;23.45;;;;;;;;;;5075961;28;20036;-75
2022/12/14 04:26:39;;;;;;;55.83;30.42;;;;;;;;;;5075627;28;20036;-78
2022/12/14 04:31:57;;;;;;;52.75;30.25;;;;;;;;;;5077014;28;20058;-74
2022/12/14 04:34:23;;;;;;;50.50;29.40;;;;;;;;;;5076774;28;20025;-75
2022/12/14 04:36:52;;;;;;;36.13;23.60;;;;;;;;;;5076927;28;20035;-71
2022/12/14 04:39:25;;;;;;;41.38;25.17;;;;;;;;;;5075603;28;20060;-71
2022/12/14 04:41:53;;;;;;;37.85;23.98;;;;;;;;;;5075428;28;20064;-73
2022/12/14 04:44:21;;;;;;;40.25;24.17;;;;;;;;;;5076481;28;20024;-72
2022/12/14 04:46:47;;;;;;;40.80;24.90;;;;;;;;;;5076359;28;20162;-72
2022/12/14 04:49:18;;;;;;;37.05;23.83;;;;;;;;;;5076483;28;20066;-72
2022/12/14 04:51:49;;;;;;;36.33;22.08;;;;;;;;;;5076677;28;20023;-71
2022/12/14 04:54:19;;;;;;;33.97;21.08;;;;;;;;;;5075829;28;20044;-71
2022/12/14 04:56:48;;;;;;;28.45;17.88;;;;;;;;;;5076847;28;20472;-70
2022/12/14 04:59:14;;;;;;;27.33;17.30;;;;;;;;;;5075535;28;20409;-71
2022/12/14 05:01:45;;;;;;;26.48;18.05;;;;;;;;;;5075726;28;20082;-71
2022/12/14 05:04:11;;;;;;;30.80;18.95;;;;;;;;;;5076486;28;20025;-71
2022/12/14 05:06:55;;;;;;;32.38;18.63;;;;;;;;;;5076348;28;20074;-71
2022/12/14 05:09:25;;;;;;;31.10;19.10;;;;;;;;;;5076385;28;20025;-70
2022/12/14 05:12:09;;;;;;;32.27;19.20;;;;;;;;;;5076626;28;20028;-71
2022/12/14 05:14:51;;;;;;;38.65;21.83;;;;;;;;;;5076381;28;20048;-71
2022/12/14 05:17:17;;;;;;;35.17;22.33;;;;;;;;;;5076371;28;20052;-71
2022/12/14 05:19:46;;;;;;;38.38;22.20;;;;;;;;;;5076127;28;20026;-70
2022/12/14 05:22:12;;;;;;;39.92;22.27;;;;;;;;;;5074972;28;20031;-70
2022/12/14 05:24:37;;;;;;;38.58;23.13;;;;;;;;;;5074819;28;20012;-71
2022/12/14 05:27:03;;;;;;;37.72;23.55;;;;;;;;;;5076057;28;20471;-70
2022/12/14 05:29:28;;;;;;;37.92;23.63;;;;;;;;;;5075003;28;20105;-74
2022/12/14 05:31:54;;;;;;;36.17;23.27;;;;;;;;;;5076006;28;20032;-76
2022/12/14 05:34:20;;;;;;;34.60;22.52;;;;;;;;;;5075000;28;20066;-71
2022/12/14 05:36:45;;;;;;;37.05;22.60;;;;;;;;;;5074767;28;20036;-71
2022/12/14 05:39:10;;;;;;;31.25;19.83;;;;;;;;;;5074853;28;20052;-72
2022/12/14 05:41:36;;;;;;;35.13;19.92;;;;;;;;;;5075720;28;20025;-71
2022/12/14 05:44:02;;;;;;;31.13;19.48;;;;;;;;;;5075851;28;20033;-71
2022/12/14 05:46:27;;;;;;;32.85;20.33;;;;;;;;;;5075519;28;20020;-72
2022/12/14 05:48:53;;;;;;;36.25;21.75;;;;;;;;;;5075536;28;20028;-71
2022/12/14 05:51:18;;;;;;;31.40;19.40;;;;;;;;;;5075677;28;20020;-71
2022/12/14 05:53:45;;;;;;;39.45;24.13;;;;;;;;;;5073459;28;20056;-71
2022/12/14 05:56:11;;;;;;;49.38;28.52;;;;;;;;;;5075020;28;20458;-72
2022/12/14 05:58:36;;;;;;;40.83;23.17;;;;;;;;;;5073701;28;20032;-72
2022/12/14 06:01:06;;;;;;;27.65;18.17;;;;;;;;;;5074923;28;20017;-72
2022/12/14 06:03:32;;;;;;;29.33;18.75;;;;;;;;;;5073457;28;20415;-72
2022/12/14 06:06:04;;;;;;;27.13;16.80;;;;;;;;;;5074334;28;20021;-72
2022/12/14 06:08:31;;;;;;;26.13;16.77;;;;;;;;;;5073469;28;20083;-73
2022/12/14 06:11:29;;;;;;;26.20;16.58;;;;;;;;;;5074687;28;20023;-73
2022/12/14 06:13:54;;;;;;;24.40;15.90;;;;;;;;;;5050994;28;20040;-72
2022/12/14 06:16:21;;;;;;;26.60;17.90;;;;;;;;;;5074581;28;20047;-74
2022/12/14 06:18:55;;;;;;;30.42;19.85;;;;;;;;;;5073515;28;20039;-74
2022/12/14 06:21:22;;;;;;;34.38;21.17;;;;;;;;;;5073068;28;20063;-72
2022/12/14 06:23:54;;;;;;;40.85;25.25;;;;;;;;;;5074450;28;20034;-74
2022/12/14 06:26:19;;;;;;;38.42;23.70;;;;;;;;;;5073248;28;20031;-74
2022/12/14 06:28:45;;;;;;;43.28;24.42;;;;;;;;;;5074452;28;20017;-74
2022/12/14 06:31:15;;;;;;;38.90;23.88;;;;;;;;;;5074129;28;20107;-72
2022/12/14 06:33:41;;;;;;;38.65;22.35;;;;;;;;;;5070390;28;20031;-72
2022/12/14 06:36:06;;;;;;;44.58;24.10;;;;;;;;;;5074131;28;20012;-72
2022/12/14 06:38:33;;;;;;;45.05;25.10;;;;;;;;;;5073490;28;20032;-72
2022/12/14 06:40:58;;;;;;;32.17;19.38;;;;;;;;;;5072545;28;20023;-71
2022/12/14 06:43:24;;;;;;;35.03;20.63;;;;;;;;;;5071976;28;20078;-71
2022/12/14 06:45:50;;;;;;;38.22;22.48;;;;;;;;;;5072319;28;20047;-71
2022/12/14 06:48:15;;;;;;;39.65;23.17;;;;;;;;;;5073926;28;20028;-71
2022/12/14 06:50:41;;;;;;;42.17;23.45;;;;;;;;;;5073879;28;20024;-72
2022/12/14 06:53:09;;;;;;;35.25;20.40;;;;;;;;;;5073382;28;20028;-72
2022/12/14 06:55:35;;;;;;;37.90;21.25;;;;;;;;;;5073730;28;20024;-72
2022/12/14 06:58:00;;;;;;;41.45;22.88;;;;;;;;;;5071975;28;20073;-73
2022/12/14 07:00:26;;;;;;;56.10;27.58;;;;;;;;;;5073338;28;20021;-71
2022/12/14 07:02:51;;;;;;;39.33;19.55;;;;;;;;;;5072021;28;20024;-73
2022/12/14 07:05:17;;;;;;;35.45;19.95;;;;;;;;;;5073120;28;20519;-73
2022/12/14 07:07:42;;;;;;;34.70;19.73;;;;;;;;;;5073078;28;20020;-71
2022/12/14 07:10:08;;;;;;;34.47;20.25;;;;;;;;;;5072984;28;20060;-72
2022/12/14 07:12:34;;;;;;;33.45;19.55;;;;;;;;;;5073261;28;20048;-74
2022/12/14 07:14:59;;;;;;;26.73;16.77;;;;;;;;;;5073554;28;20032;-73
2022/12/14 07:17:25;;;;;;;25.35;16.67;;;;;;;;;;5073033;28;20031;-75
2022/12/14 07:19:50;;;;;;;29.20;17.75;;;;;;;;;;5072610;28;20031;-75
2022/12/14 07:22:15;;;;;;;24.75;16.50;;;;;;;;;;5069518;28;20022;-75
2022/12/14 07:24:42;;;;;;;25.80;16.40;;;;;;;;;;5070216;28;20043;-75
2022/12/14 07:27:07;;;;;;;27.77;18.52;;;;;;;;;;5071128;28;20020;-75
2022/12/14 07:29:32;;;;;;;30.23;18.83;;;;;;;;;;5069605;28;20527;-75
2022/12/14 07:31:58;;;;;;;53.03;30.10;;;;;;;;;;5070636;28;20046;-75
2022/12/14 07:34:23;;;;;;;56.63;30.30;;;;;;;;;;5070815;28;20028;-74
2022/12/14 07:36:50;;;;;;;90.93;42.10;;;;;;;;;;5069435;28;20032;-74
2022/12/14 07:39:16;;;;;;;73.75;37.78;;;;;;;;;;5070699;28;20063;-74
2022/12/14 07:41:42;;;;;;;61.50;33.58;;;;;;;;;;5069696;28;20099;-75
2022/12/14 07:44:09;;;;;;;75.82;39.40;;;;;;;;;;5037778;28;20072;-75
2022/12/14 07:46:34;;;;;;;62.47;40.90;;;;;;;;;;5072159;28;20090;-75
2022/12/14 07:49:00;;;;;;;57.38;36.55;;;;;;;;;;5071792;28;20038;-75
2022/12/14 07:51:27;;;;;;;54.95;29.85;;;;;;;;;;5072053;28;20033;-75
2022/12/14 07:53:53;;;;;;;49.65;28.35;;;;;;;;;;5054053;28;20034;-75
2022/12/14 07:56:20;;;;;;;70.90;40.10;;;;;;;;;;5054268;28;20044;-75
2022/12/14 07:58:45;;;;;;;55.15;29.33;;;;;;;;;;5072191;28;20645;-75
2022/12/14 08:01:12;;;;;;;69.97;34.15;;;;;;;;;;5054236;28;20032;-75
2022/12/14 08:03:42;;;;;;;145.13;68.65;;;;;;;;;;5072043;28;20024;-73
2022/12/14 08:06:09;;;;;;;51.17;27.63;;;;;;;;;;5072326;28;20495;-73
2022/12/14 08:08:34;;;;;;;43.85;24.23;;;;;;;;;;5071960;28;20275;-72
2022/12/14 08:11:00;;;;;;;41.63;26.30;;;;;;;;;;5053393;28;20128;-72
2022/12/14 08:13:25;;;;;;;36.60;23.42;;;;;;;;;;5054196;28;20060;-72
2022/12/14 08:15:51;;;;;;;35.70;21.00;;;;;;;;;;5071755;28;20037;-72
2022/12/14 08:18:16;;;;;;;29.98;18.30;;;;;;;;;;5071843;28;20024;-73
2022/12/14 08:20:41;;;;;;;30.45;19.45;;;;;;;;;;5072337;28;20106;-73
2022/12/14 08:23:07;;;;;;;29.95;16.95;;;;;;;;;;5053970;28;20388;-73
2022/12/14 08:25:32;;;;;;;27.23;17.45;;;;;;;;;;5071997;28;20064;-73
2022/12/14 08:27:57;;;;;;;30.02;16.80;;;;;;;;;;5071757;28;20035;-73
2022/12/14 08:30:23;;;;;;;32.45;19.30;;;;;;;;;;5071584;28;20021;-73
2022/12/14 08:32:48;;;;;;;34.38;21.63;;;;;;;;;;5071850;28;20451;-73
2022/12/14 08:35:13;;;;;;;28.50;20.13;;;;;;;;;;5072142;28;20025;-72
2022/12/14 08:37:39;;;;;;;34.63;24.90;;;;;;;;;;5057151;28;20472;-72
2022/12/14 08:40:04;;;;;;;29.67;17.80;;;;;;;;;;5075243;28;20112;-72
2022/12/14 08:42:30;;;;;;;25.98;16.58;;;;;;;;;;5056823;28;20434;-72
2022/12/14 08:44:55;;;;;;;26.30;17.65;;;;;;;;;;5075169;28;20115;-72
2022/12/14 08:47:21;;;;;;;29.80;18.67;;;;;;;;;;5057511;28;20471;-73
2022/12/14 08:49:46;;;;;;;34.35;20.83;;;;;;;;;;5057106;28;20033;-73
2022/12/14 08:52:11;;;;;;;33.17;20.38;;;;;;;;;;5075255;28;20066;-73
2022/12/14 08:54:37;;;;;;;33.65;20.00;;;;;;;;;;5074675;28;20041;-73
2022/12/14 08:57:02;;;;;;;36.63;20.73;;;;;;;;;;5075212;28;20048;-73
2022/12/14 08:59:28;;;;;;;34.42;19.48;;;;;;;;;;5074577;28;20085;-73
2022/12/14 09:01:53;;;;;;;33.78;19.42;;;;;;;;;;5074996;28;20016;-73
2022/12/14 09:04:19;;;;;;;36.33;22.25;;;;;;;;;;5074779;28;20036;-73
2022/12/14 09:06:47;;;;;;;41.58;25.92;;;;;;;;;;5056561;28;20021;-73
2022/12/14 09:09:13;;;;;;;38.47;23.92;;;;;;;;;;5074686;28;20032;-73
2022/12/14 09:11:38;;;;;;;43.08;28.98;;;;;;;;;;5074881;28;20024;-73
2022/12/14 09:14:04;;;;;;;105.82;77.53;;;;;;;;;;5074518;28;20033;-73
2022/12/14 09:16:30;;;;;;;36.78;23.83;;;;;;;;;;5074474;28;20100;-74
2022/12/14 09:18:56;;;;;;;34.63;21.38;;;;;;;;;;5074838;28;20025;-73
2022/12/14 09:21:21;;;;;;;29.83;20.70;;;;;;;;;;5056236;28;20009;-73
2022/12/14 09:23:47;;;;;;;35.80;22.15;;;;;;;;;;5074393;28;20560;-73
2022/12/14 09:26:17;;;;;;;48.38;27.45;;;;;;;;;;5056271;28;20111;-73
2022/12/14 09:28:44;;;;;;;58.78;37.70;;;;;;;;;;5056159;28;20052;-73
2022/12/14 09:31:11;;;;;;;52.58;34.35;;;;;;;;;;5074295;28;20021;-73
2022/12/14 09:33:37;;;;;;;61.63;29.30;;;;;;;;;;5074211;28;20040;-73
2022/12/14 09:36:04;;;;;;;43.22;24.67;;;;;;;;;;5056303;28;20016;-73
2022/12/14 09:38:31;;;;;;;41.17;24.98;;;;;;;;;;5055789;28;20040;-73
2022/12/14 09:40:58;;;;;;;37.00;22.52;;;;;;;;;;5074339;28;20024;-73
2022/12/14 09:43:26;;;;;;;37.30;23.88;;;;;;;;;;5055896;28;20059;-74
2022/12/14 09:45:53;;;;;;;38.53;24.20;;;;;;;;;;5073929;28;20032;-71
2022/12/14 09:48:23;;;;;;;43.25;25.42;;;;;;;;;;5073633;28;20388;-71
2022/12/14 09:50:49;;;;;;;;;;;;;;;;;;5074644;28;20107;-71
2022/12/14 09:53:14;;;;;;;35.92;22.45;;;;;;;;;;5056208;28;20380;-72
2022/12/14 09:55:44;;;;;;;36.78;22.33;;;;;;;;;;5074068;28;20055;-72
2022/12/14 09:58:24;;;;;;;39.50;22.83;;;;;;;;;;5074040;28;20032;-72
2022/12/14 10:00:52;;;;;;;43.50;26.70;;;;;;;;;;5074142;28;20030;-71
2022/12/14 10:03:18;;;;;;;62.90;31.83;;;;;;;;;;5056666;28;20306;-71
2022/12/14 10:05:52;;;;;;;50.50;29.05;;;;;;;;;;5074746;28;20028;-71
2022/12/14 10:08:17;;;;;;;37.55;22.90;;;;;;;;;;5074907;28;20111;-71
2022/12/14 10:11:05;;;;;;;37.47;22.97;;;;;;;;;;5074889;28;20450;-71
2022/12/14 10:13:39;;;;;;;39.55;24.48;;;;;;;;;;5074779;28;20297;-71
2022/12/14 10:16:13;;;;;;;50.50;27.25;;;;;;;;;;5056983;28;20475;-71
2022/12/14 10:19:02;;;;;;;75.82;51.40;;;;;;;;;;5074781;28;20021;-70
2022/12/14 10:21:40;;;;;;;37.35;24.13;;;;;;;;;;5063877;28;20498;-71
2022/12/14 10:24:11;;;;;;;51.47;32.72;;;;;;;;;;5058847;23;20042;-71
2022/12/14 10:26:51;;;;;;;48.65;28.40;;;;;;;;;;5080492;22;20498;-73
2022/12/14 10:29:33;;;;;;;35.88;22.38;;;;;;;;;;5015960;23;20050;-72
2022/12/14 10:32:02;;;;;;;39.25;25.15;;;;;;;;;;5051568;23;20050;-72
2022/12/14 10:34:29;;;;;;;43.40;23.65;;;;;;;;;;4993960;28;20039;-74
2022/12/14 10:37:11;;;;;;;47.88;31.38;;;;;;;;;;4995152;28;20030;-74
2022/12/14 10:39:44;;;;;;;37.45;23.80;;;;;;;;;;4995088;28;20496;-74
2022/12/14 10:42:15;;;;;;;47.53;30.33;;;;;;;;;;4994788;28;20026;-74
2022/12/14 10:44:51;;;;;;;57.92;39.55;;;;;;;;;;4994023;28;20038;-74
2022/12/14 10:47:22;;;;;;;48.83;29.55;;;;;;;;;;4995256;28;20026;-74
2022/12/14 10:49:59;;;;;;;46.97;28.35;;;;;;;;;;4994946;28;20109;-74
2022/12/14 10:52:27;;;;;;;40.50;23.42;;;;;;;;;;4994825;28;20041;-74
2022/12/14 10:54:54;;;;;;;40.13;25.23;;;;;;;;;;4993850;28;20018;-74
2022/12/14 10:57:21;;;;;;;40.35;24.30;;;;;;;;;;4994509;28;20031;-73
2022/12/14 10:59:47;;;;;;;43.80;26.10;;;;;;;;;;4994441;28;20029;-73
2022/12/14 11:02:15;;;;;;;46.25;27.25;;;;;;;;;;4994725;28;20390;-74
2022/12/14 11:05:02;;;;;;;33.92;20.55;;;;;;;;;;4994674;28;20014;-65
2022/12/14 11:07:30;;;;;;;34.75;22.13;;;;;;;;;;4994919;28;20031;-76
2022/12/14 11:10:12;;;;;;;47.28;30.20;;;;;;;;;;5026143;28;20381;-76
2022/12/14 11:12:38;;;;;;;57.53;33.40;;;;;;;;;;4993373;28;20034;-76
2022/12/14 11:15:05;;;;;;;26.23;16.02;;;;;;;;;;4993506;28;20018;-83
2022/12/14 11:17:36;;;;;;;39.33;22.23;;;;;;;;;;4993430;28;20493;-83
2022/12/14 11:20:13;;;;;;;42.20;24.67;;;;;;;;;;5008597;28;20022;-84
2022/12/14 11:22:46;;;;;;;35.70;21.40;;;;;;;;;;5008443;28;20041;-76
2022/12/14 11:25:30;;;;;;;50.50;28.88;;;;;;;;;;4993240;28;20034;-76
2022/12/14 11:27:57;;;;;;;79.60;47.33;;;;;;;;;;5024057;28;20044;-76
2022/12/14 11:30:22;;;;;;;64.90;37.22;;;;;;;;;;4992952;28;20019;-76
2022/12/14 11:32:48;;;;;;;47.95;28.58;;;;;;;;;;4992610;28;20038;-76
2022/12/14 11:35:17;;;;;;;35.70;21.63;;;;;;;;;;5024855;28;20514;-76
2022/12/14 11:37:42;;;;;;;28.75;18.02;;;;;;;;;;4993291;28;20022;-76
2022/12/14 11:40:34;;;;;;;28.20;17.35;;;;;;;;;;4992879;28;20061;-76
2022/12/14 11:43:00;;;;;;;28.63;18.20;;;;;;;;;;4993075;28;20046;-76
2022/12/14 11:45:26;;;;;;;32.72;19.83;;;;;;;;;;4993177;28;20069;-76
2022/12/14 11:48:09;;;;;;;34.42;21.55;;;;;;;;;;4993174;28;20150;-76
2022/12/14 11:50:35;;;;;;;43.28;24.70;;;;;;;;;;5008655;28;20128;-71
2022/12/14 11:53:05;;;;;;;48.45;28.63;;;;;;;;;;4992748;28;20484;-73
2022/12/14 11:55:32;;;;;;;64.90;39.58;;;;;;;;;;4992789;28;20130;-74
2022/12/14 11:57:58;;;;;;;60.75;36.30;;;;;;;;;;4993029;28;20022;-74
2022/12/14 12:00:27;;;;;;;60.03;34.88;;;;;;;;;;4993016;28;20531;-74
2022/12/14 12:02:53;;;;;;;62.53;34.55;;;;;;;;;;4991773;28;20036;-72
2022/12/14 12:05:19;;;;;;;63.80;33.85;;;;;;;;;;4992700;28;20038;-72
2022/12/14 12:07:48;;;;;;;60.38;34.60;;;;;;;;;;4992817;28;20034;-72
2022/12/14 12:10:14;;;;;;;51.25;32.15;;;;;;;;;;4995015;28;20015;-72
2022/12/14 12:12:53;;;;;;;52.60;33.08;;;;;;;;;;4996742;28;20037;-72
2022/12/14 12:15:25;;;;;;;46.63;30.33;;;;;;;;;;4996778;28;20490;-72
2022/12/14 12:18:01;;;;;;;49.67;31.10;;;;;;;;;;4995414;28;20463;-74
2022/12/14 12:20:31;;;;;;;45.95;28.33;;;;;;;;;;4996589;28;20029;-74
2022/12/14 12:22:59;;;;;;;39.53;25.40;;;;;;;;;;4996680;28;20034;-74
2022/12/14 12:25:25;;;;;;;49.40;30.13;;;;;;;;;;4995447;28;20107;-73
2022/12/14 12:27:59;;;;;;;53.38;29.15;;;;;;;;;;4996617;28;20089;-73
2022/12/14 12:30:30;;;;;;;45.88;27.33;;;;;;;;;;4996462;28;20521;-73
2022/12/14 12:32:59;;;;;;;53.13;30.23;;;;;;;;;;4994513;28;20093;-73
2022/12/14 12:35:38;;;;;;;44.97;26.73;;;;;;;;;;4996458;28;20042;-73
2022/12/14 12:38:11;;;;;;;48.95;30.88;;;;;;;;;;4996411;28;20026;-72
2022/12/14 12:40:39;;;;;;;46.28;29.55;;;;;;;;;;4996291;28;20026;-72
2022/12/14 12:43:04;;;;;;;54.65;31.80;;;;;;;;;;4996293;28;20058;-72
2022/12/14 12:45:30;;;;;;;71.13;40.80;;;;;;;;;;5027420;28;20064;-72
2022/12/14 12:48:00;;;;;;;85.10;45.90;;;;;;;;;;4996120;28;20018;-72
2022/12/14 12:50:29;;;;;;;107.82;53.00;;;;;;;;;;4996062;28;20076;-72
2022/12/14 12:52:57;;;;;;;91.40;44.38;;;;;;;;;;5027561;28;20018;-72
2022/12/14 12:55:23;;;;;;;66.88;36.03;;;;;;;;;;4995957;28;20026;-72
2022/12/14 12:57:52;;;;;;;56.95;30.48;;;;;;;;;;4995573;28;20038;-73
2022/12/14 13:00:24;;;;;;;62.13;33.03;;;;;;;;;;5027391;28;20046;-73
2022/12/14 13:02:52;;;;;;;53.03;31.55;;;;;;;;;;4995865;28;20114;-72
2022/12/14 13:05:19;;;;;;;52.28;31.70;;;;;;;;;;4995828;28;20026;-72
2022/12/14 13:07:47;;;;;;;55.55;37.28;;;;;;;;;;4995381;28;20034;-72
2022/12/14 13:10:12;;;;;;;65.30;40.55;;;;;;;;;;4995496;28;20034;-72
2022/12/14 13:12:41;;;;;;;50.35;30.88;;;;;;;;;;4995254;28;20049;-73
2022/12/14 13:15:18;;;;;;;56.83;36.63;;;;;;;;;;4995349;28;20076;-73
2022/12/14 13:17:46;;;;;;;51.80;33.25;;;;;;;;;;4995650;28;20041;-72
2022/12/14 13:20:23;;;;;;;50.78;34.22;;;;;;;;;;5027094;28;20022;-72
2022/12/14 13:22:49;;;;;;;53.10;33.97;;;;;;;;;;4994932;28;20372;-72
2022/12/14 13:25:18;;;;;;;44.58;28.42;;;;;;;;;;4995021;28;20109;-72
2022/12/14 13:27:43;;;;;;;53.55;32.95;;;;;;;;;;4995416;28;20477;-72
2022/12/14 13:30:26;;;;;;;44.83;25.48;;;;;;;;;;4995416;28;20064;-73
2022/12/14 13:32:52;;;;;;;47.72;31.52;;;;;;;;;;4995003;28;20512;-72
2022/12/14 13:35:23;;;;;;;49.92;30.00;;;;;;;;;;4995349;28;20058;-76
2022/12/14 13:38:07;;;;;;;71.32;38.95;;;;;;;;;;4994985;28;20382;-80
2022/12/14 13:40:38;;;;;;;72.35;39.80;;;;;;;;;;4995243;28;20033;-80
2022/12/14 13:43:13;;;;;;;62.97;35.63;;;;;;;;;;4995139;28;20034;-77
2022/12/14 13:45:44;;;;;;;48.28;28.08;;;;;;;;;;5026643;28;20097;-79
2022/12/14 13:48:19;;;;;;;54.47;33.25;;;;;;;;;;4993895;28;20045;-79
2022/12/14 13:50:44;;;;;;;49.17;28.42;;;;;;;;;;4994834;28;20045;-78
2022/12/14 13:53:09;;;;;;;56.17;30.00;;;;;;;;;;4993614;28;20022;-78
2022/12/14 13:55:36;;;;;;;50.55;30.02;;;;;;;;;;4994985;28;20026;-77
2022/12/14 13:58:20;;;;;;;55.75;33.75;;;;;;;;;;4993760;28;20077;-78
2022/12/14 14:00:53;;;;;;;71.20;44.00;;;;;;;;;;4994857;28;20030;-77
2022/12/14 14:03:33;;;;;;;82.50;66.45;;;;;;;;;;4994518;28;20643;-78
2022/12/14 14:06:11;;;;;;;57.28;40.10;;;;;;;;;;4994640;28;20474;-78
2022/12/14 14:08:43;;;;;;;59.03;39.25;;;;;;;;;;4994662;28;20034;-78
2022/12/14 14:11:21;;;;;;;48.00;30.08;;;;;;;;;;4994630;28;20552;-79
2022/12/14 14:13:47;;;;;;;43.88;29.52;;;;;;;;;;5026063;28;20030;-79
2022/12/14 14:16:15;;;;;;;46.05;28.23;;;;;;;;;;4993927;28;20019;-79
2022/12/14 14:18:50;;;;;;;43.60;25.75;;;;;;;;;;4994469;28;20117;-79
2022/12/14 14:21:51;;;;;;;41.08;27.23;;;;;;;;;;4993225;28;20096;-79
2022/12/14 14:24:16;;;;;;;46.58;27.10;;;;;;;;;;4972699;28;20111;-78
2022/12/14 14:26:42;;;;;;;43.13;26.17;;;;;;;;;;4990453;28;20390;-78
2022/12/14 14:29:24;;;;;;;44.20;26.00;;;;;;;;;;5009991;28;20030;-76
2022/12/14 14:32:00;;;;;;;40.38;26.95;;;;;;;;;;4995126;28;20042;-78
2022/12/14 14:34:25;;;;;;;52.58;28.58;;;;;;;;;;5026235;28;20069;-79
2022/12/14 14:36:51;;;;;;;53.67;31.48;;;;;;;;;;4994989;28;20035;-78
2022/12/14 14:39:32;;;;;;;47.25;28.73;;;;;;;;;;4994957;28;20034;-79
2022/12/14 14:41:59;;;;;;;54.30;32.25;;;;;;;;;;4994833;28;20070;-79